Terminal Aerodrome Forecast
Issued by NWS

Home | Current Version | Previous Version | Text Only | Print | Product List | Glossary On
Versions: 1 2 3 4 5 6 7 8 9 10 11 12 13 14 15 16 17 18 19 20
000
FTUS45 KABQ 020805 AAA
TAFGUP
TAF AMD
KGUP 020805Z 0208/0306 10003KT P6SM BKN090
     FM021100 VRB06KT 5SM BR OVC015
      TEMPO 0211/0215 1SM BR OVC007
     FM021700 20006KT P6SM SCT015 BKN050
     FM022000 29007KT P6SM SCT050 SCT080=

USA.gov is the U.S. government's official web portal to all federal, state and local government web resources and services.